createdAt,value
2018-12-14T00:01:43.612Z,75.04
2018-12-14T00:04:12.875Z,74.99
2018-12-14T00:06:42.140Z,74.79
2018-12-14T00:09:11.407Z,74.77
2018-12-14T00:11:45.498Z,74.77
2018-12-14T00:14:10.852Z,74.84
2018-12-14T00:19:15.443Z,74.81
2018-12-14T00:21:44.719Z,74.64
2018-12-14T00:24:13.977Z,74.57
2018-12-14T00:26:43.242Z,74.55
2018-12-14T00:29:12.503Z,74.53
2018-12-14T00:31:41.753Z,74.72
2018-12-14T00:34:10.991Z,74.69
2018-12-14T00:36:40.250Z,74.75
2018-12-14T00:39:09.496Z,74.57
2018-12-14T00:41:38.759Z,74.64
2018-12-14T00:44:08.015Z,74.88
2018-12-14T00:46:44.947Z,75.02
2018-12-14T00:49:14.558Z,74.92
2018-12-14T00:51:43.822Z,74.81
2018-12-14T00:54:13.093Z,74.82
2018-12-14T00:56:42.353Z,74.78
2018-12-14T00:59:11.602Z,74.77
2018-12-14T01:01:40.867Z,74.85
2018-12-14T01:04:10.116Z,74.73
2018-12-14T01:06:39.515Z,74.88
2018-12-14T01:09:08.758Z,75.01
2018-12-14T01:11:38.024Z,74.78
2018-12-14T01:14:07.279Z,74.70
2018-12-14T01:16:36.533Z,74.69
2018-12-14T01:19:05.802Z,74.53
2018-12-14T01:21:35.073Z,74.49
2018-12-14T01:24:04.399Z,74.75
2018-12-14T01:26:33.704Z,74.67
2018-12-14T01:29:02.953Z,74.64
2018-12-14T01:31:32.219Z,74.68
2018-12-14T01:34:01.471Z,74.69
2018-12-14T01:36:30.732Z,74.69
2018-12-14T01:38:59.988Z,74.76
2018-12-14T01:41:29.249Z,74.81
2018-12-14T01:43:58.506Z,74.71
2018-12-14T01:46:47.357Z,74.83
2018-12-14T01:49:16.625Z,74.75
2018-12-14T01:51:45.899Z,74.72
2018-12-14T01:54:15.149Z,74.86
2018-12-14T01:56:44.421Z,75.11
2018-12-14T01:59:13.696Z,75.43
2018-12-14T02:01:42.962Z,75.40
2018-12-14T02:04:12.227Z,75.53
2018-12-14T02:06:41.479Z,75.52
2018-12-14T02:09:10.741Z,75.53
2018-12-14T02:11:40.004Z,75.77
2018-12-14T02:14:09.251Z,75.64
2018-12-14T02:16:38.525Z,75.58
2018-12-14T02:19:07.794Z,75.89
2018-12-14T02:21:37.070Z,76.00
2018-12-14T02:24:06.349Z,75.86
2018-12-14T02:26:35.593Z,75.75
2018-12-14T02:29:04.862Z,75.79
2018-12-14T02:31:34.143Z,75.96
2018-12-14T02:34:03.403Z,75.86
2018-12-14T02:36:32.658Z,75.79
2018-12-14T02:39:01.924Z,75.78
2018-12-14T02:41:31.188Z,75.90
2018-12-14T02:44:00.468Z,75.79
2018-12-14T02:46:29.733Z,75.87
2018-12-14T02:48:58.991Z,75.82
2018-12-14T02:51:28.266Z,75.75
2018-12-14T02:53:57.558Z,75.64
2018-12-14T02:56:26.806Z,75.69
2018-12-14T02:58:56.089Z,75.92
2018-12-14T03:01:25.443Z,75.97
2018-12-14T03:03:54.715Z,75.92
2018-12-14T03:06:23.970Z,75.79
2018-12-14T03:08:53.246Z,75.57
2018-12-14T03:11:22.502Z,75.71
2018-12-14T03:13:51.763Z,75.58
2018-12-14T03:16:21.025Z,75.73
2018-12-14T03:18:50.295Z,75.97
2018-12-14T03:21:38.691Z,76.09
2018-12-14T03:24:07.959Z,76.21
2018-12-14T03:26:37.224Z,76.12
2018-12-14T03:29:06.490Z,76.10
2018-12-14T03:31:35.741Z,76.01
2018-12-14T03:34:05.010Z,75.96
2018-12-14T03:36:34.261Z,75.92
2018-12-14T03:41:39.267Z,75.88
2018-12-14T03:44:08.530Z,75.78
2018-12-14T03:46:37.782Z,75.76
2018-12-14T03:49:07.050Z,75.83
2018-12-14T03:51:36.301Z,75.81
2018-12-14T03:54:05.577Z,75.80
2018-12-14T03:56:34.829Z,75.69
2018-12-14T03:59:04.097Z,75.70
2018-12-14T04:01:33.359Z,75.69
2018-12-14T04:04:02.626Z,75.53
2018-12-14T04:06:31.890Z,75.76
2018-12-14T04:09:01.168Z,75.91
2018-12-14T04:11:30.412Z,76.04
2018-12-14T04:13:59.680Z,76.03
2018-12-14T04:16:28.944Z,76.17
2018-12-14T04:18:58.199Z,76.25
2018-12-14T04:21:27.457Z,76.29
2018-12-14T04:23:56.717Z,76.52
2018-12-14T04:26:25.965Z,76.51
2018-12-14T04:28:55.236Z,76.66
2018-12-14T04:31:24.496Z,76.41
2018-12-14T04:33:53.763Z,76.37
2018-12-14T04:36:23.053Z,76.69
2018-12-14T04:38:52.324Z,76.88
2018-12-14T04:41:21.576Z,76.66
2018-12-14T04:43:50.856Z,76.69
2018-12-14T04:46:20.133Z,77.04
2018-12-14T04:48:49.398Z,77.15
2018-12-14T04:51:38.594Z,76.87
2018-12-14T04:54:07.861Z,77.06
2018-12-14T04:56:37.110Z,77.00
2018-12-14T04:59:06.384Z,76.94
2018-12-14T05:01:35.630Z,76.86
2018-12-14T05:04:04.895Z,76.73
2018-12-14T05:06:34.213Z,76.67
2018-12-14T05:11:39.445Z,76.44
2018-12-14T05:14:09.398Z,76.33
2018-12-14T05:16:38.659Z,76.31
2018-12-14T05:19:07.940Z,76.22
2018-12-14T05:21:37.194Z,76.11
2018-12-14T05:24:06.462Z,75.94
2018-12-14T05:26:35.799Z,75.69
2018-12-14T05:29:04.986Z,75.74
2018-12-14T05:31:34.254Z,76.22
2018-12-14T05:34:03.509Z,76.32
2018-12-14T05:36:32.783Z,76.46
2018-12-14T05:39:02.037Z,76.43
2018-12-14T05:41:31.425Z,76.39
2018-12-14T05:44:00.656Z,76.60
2018-12-14T05:46:29.938Z,76.64
2018-12-14T05:48:59.197Z,76.70
2018-12-14T05:51:28.469Z,76.57
2018-12-14T05:53:57.724Z,76.53
2018-12-14T05:59:02.716Z,76.41
2018-12-14T06:01:31.982Z,76.37
2018-12-14T06:06:50.488Z,76.21
2018-12-14T06:09:19.765Z,76.18
2018-12-14T06:11:49.011Z,76.31
2018-12-14T06:14:18.266Z,76.36
2018-12-14T06:16:47.538Z,76.33
2018-12-14T06:19:16.881Z,76.20
2018-12-14T06:21:46.173Z,76.08
2018-12-14T06:24:15.419Z,75.97
2018-12-14T06:26:44.707Z,75.86
2018-12-14T06:29:13.968Z,75.73
2018-12-14T06:31:43.229Z,75.47
2018-12-14T06:34:12.480Z,75.62
2018-12-14T06:36:41.738Z,75.63
2018-12-14T06:39:10.994Z,75.84
2018-12-14T06:44:15.740Z,76.07
2018-12-14T06:46:45.005Z,75.94
2018-12-14T06:49:14.261Z,75.99
2018-12-14T06:51:43.532Z,75.90
2018-12-14T06:54:12.783Z,75.86
2018-12-14T06:56:42.047Z,75.82
2018-12-14T06:59:11.302Z,75.82
2018-12-14T07:01:40.584Z,75.74
2018-12-14T07:04:09.835Z,75.62
2018-12-14T07:06:39.100Z,75.58
2018-12-14T07:09:08.354Z,75.61
2018-12-14T07:11:37.610Z,75.53
2018-12-14T07:14:06.864Z,75.50
2018-12-14T07:16:36.125Z,75.19
2018-12-14T07:19:05.389Z,75.21
2018-12-14T07:21:34.657Z,75.66
2018-12-14T07:24:03.938Z,75.51
2018-12-14T07:29:08.811Z,75.41
2018-12-14T07:31:38.161Z,75.40
2018-12-14T07:34:07.413Z,75.36
2018-12-14T07:36:36.696Z,74.93
2018-12-14T07:39:07.033Z,75.29
2018-12-14T07:41:36.308Z,75.90
2018-12-14T07:44:05.562Z,76.18
2018-12-14T07:46:34.840Z,76.23
2018-12-14T07:49:04.092Z,76.23
2018-12-14T07:54:07.911Z,76.16
2018-12-14T07:56:37.182Z,76.25
2018-12-14T07:59:06.510Z,76.01
2018-12-14T08:01:35.773Z,76.23
2018-12-14T08:04:05.028Z,76.38
2018-12-14T08:06:34.305Z,76.50
2018-12-14T08:11:52.967Z,76.53
2018-12-14T08:14:22.215Z,76.40
2018-12-14T08:16:51.473Z,76.35
2018-12-14T08:19:20.730Z,76.28
2018-12-14T08:21:49.991Z,76.08
2018-12-14T08:24:19.240Z,76.30
2018-12-14T08:26:48.503Z,76.36
2018-12-14T08:29:17.759Z,76.23
2018-12-14T08:34:22.035Z,76.02
2018-12-14T08:36:51.304Z,75.71
2018-12-14T08:39:20.548Z,75.68
2018-12-14T08:41:49.809Z,75.22
2018-12-14T08:47:07.453Z,75.29
2018-12-14T08:49:36.711Z,75.39
2018-12-14T08:52:05.982Z,75.32
2018-12-14T08:54:35.236Z,75.42
2018-12-14T08:57:04.526Z,75.42
2018-12-14T08:59:33.782Z,75.33
2018-12-14T09:04:38.416Z,75.29
2018-12-14T09:07:07.677Z,75.22
2018-12-14T09:12:25.336Z,74.74
2018-12-14T09:14:54.581Z,74.13
2018-12-14T09:19:58.775Z,74.59
2018-12-14T09:22:28.050Z,75.09
2018-12-14T09:24:57.308Z,75.37
2018-12-14T09:27:26.578Z,79.75
2018-12-14T09:29:55.832Z,84.26
2018-12-14T09:32:25.089Z,85.73
2018-12-14T09:34:54.353Z,86.12
2018-12-14T09:37:23.614Z,85.28
2018-12-14T09:39:52.875Z,82.90
2018-12-14T09:42:22.154Z,81.92
2018-12-14T09:44:51.407Z,83.90
2018-12-14T09:47:20.662Z,83.92
2018-12-14T09:50:09.519Z,86.59
2018-12-14T09:52:38.801Z,85.51
2018-12-14T09:55:08.049Z,84.69
2018-12-14T09:57:37.314Z,84.54
2018-12-14T10:00:06.615Z,74.17
2018-12-14T10:02:35.883Z,82.62
2018-12-14T10:05:05.604Z,73.43
2018-12-14T10:07:34.855Z,76.07
2018-12-14T10:10:04.377Z,74.05
2018-12-14T10:12:33.617Z,73.40
2018-12-14T10:15:02.890Z,77.21
2018-12-14T10:17:32.135Z,79.54
2018-12-14T10:20:01.396Z,73.87
2018-12-14T10:22:30.645Z,72.22
2018-12-14T10:24:59.910Z,72.99
2018-12-14T10:27:29.174Z,66.39
2018-12-14T10:29:58.431Z,66.59
2018-12-14T10:32:27.685Z,73.18
2018-12-14T10:34:56.943Z,70.71
2018-12-14T10:37:26.196Z,66.00
2018-12-14T10:39:55.461Z,66.90
2018-12-14T10:42:24.796Z,64.15
2018-12-14T10:44:54.067Z,65.85
2018-12-14T10:47:23.325Z,64.11
2018-12-14T10:49:52.584Z,66.94
2018-12-14T10:52:21.846Z,71.64
2018-12-14T10:57:26.470Z,68.06
2018-12-14T10:59:55.737Z,70.43
2018-12-14T11:02:24.986Z,67.36
2018-12-14T11:04:54.248Z,70.17
2018-12-14T11:07:23.499Z,63.39
2018-12-14T11:09:52.761Z,65.49
2018-12-14T11:12:22.040Z,63.09
2018-12-14T11:14:51.309Z,62.87
2018-12-14T11:17:20.573Z,65.08
2018-12-14T11:19:49.832Z,68.01
2018-12-14T11:22:19.091Z,64.17
2018-12-14T11:24:48.360Z,62.09
2018-12-14T11:27:17.615Z,61.55
2018-12-14T11:29:46.906Z,62.05
2018-12-14T11:32:16.156Z,62.72
2018-12-14T11:34:45.440Z,63.13
2018-12-14T11:37:14.762Z,66.76
2018-12-14T11:39:44.009Z,68.61
2018-12-14T11:42:13.352Z,61.82
2018-12-14T11:44:42.621Z,60.83
2018-12-14T11:47:17.967Z,61.08
2018-12-14T11:49:42.056Z,62.82
2018-12-14T11:52:18.214Z,65.49
2018-12-14T11:55:07.534Z,62.76
2018-12-14T11:57:36.795Z,67.49
2018-12-14T12:00:09.080Z,62.75
2018-12-14T12:02:43.044Z,64.07
2018-12-14T12:05:08.544Z,60.79
2018-12-14T12:10:13.216Z,61.03
2018-12-14T12:12:42.565Z,65.70
2018-12-14T12:15:11.815Z,64.02
2018-12-14T12:17:41.069Z,63.23
2018-12-14T12:20:10.322Z,64.37
2018-12-14T12:22:39.582Z,62.60
2018-12-14T12:25:08.831Z,70.23
2018-12-14T12:27:38.101Z,66.00
2018-12-14T12:30:08.449Z,64.09
2018-12-14T12:32:37.709Z,62.48
2018-12-14T12:35:08.119Z,69.98
2018-12-14T12:37:37.143Z,73.04
2018-12-14T12:40:06.429Z,75.23
2018-12-14T12:42:35.690Z,72.65
2018-12-14T12:45:05.063Z,72.63
2018-12-14T12:47:34.326Z,67.35
2018-12-14T12:50:03.571Z,69.83
2018-12-14T12:52:32.836Z,71.43
2018-12-14T12:55:02.086Z,64.71
2018-12-14T12:57:31.352Z,72.33
2018-12-14T13:00:00.603Z,73.78
2018-12-14T13:02:29.870Z,73.27
2018-12-14T13:04:59.119Z,63.29
2018-12-14T13:07:28.389Z,69.35
2018-12-14T13:09:57.643Z,69.56
2018-12-14T13:12:26.913Z,66.25
2018-12-14T13:14:56.154Z,69.65
2018-12-14T13:17:25.420Z,68.11
2018-12-14T13:19:54.674Z,72.18
2018-12-14T13:22:23.966Z,68.52
2018-12-14T13:24:53.210Z,67.49
2018-12-14T13:27:22.477Z,64.41
2018-12-14T13:29:51.724Z,67.70
2018-12-14T13:32:20.985Z,66.35
2018-12-14T13:34:50.233Z,64.71
2018-12-14T13:37:19.508Z,70.71
2018-12-14T13:39:48.773Z,71.29
2018-12-14T13:42:18.033Z,72.58
2018-12-14T13:47:36.606Z,70.88
2018-12-14T13:50:06.574Z,61.50
2018-12-14T13:52:35.859Z,69.08
2018-12-14T13:55:05.194Z,69.75
2018-12-14T13:57:34.463Z,62.83
2018-12-14T14:00:03.722Z,62.12
2018-12-14T14:02:33.013Z,64.00
2018-12-14T14:05:02.263Z,60.02
2018-12-14T14:07:31.497Z,61.88
2018-12-14T14:10:00.816Z,62.74
2018-12-14T14:12:31.007Z,66.05
2018-12-14T14:15:00.229Z,62.79
2018-12-14T14:17:29.484Z,72.26
2018-12-14T14:19:58.856Z,62.91
2018-12-14T14:22:28.106Z,62.27
2018-12-14T14:24:57.367Z,62.63
2018-12-14T14:27:26.627Z,60.96
2018-12-14T14:29:55.888Z,64.77
2018-12-14T14:32:25.167Z,62.03
2018-12-14T14:34:54.466Z,70.73
2018-12-14T14:37:23.728Z,64.20
2018-12-14T14:39:52.999Z,63.39
2018-12-14T14:42:22.254Z,62.24
2018-12-14T14:44:51.525Z,62.69
2018-12-14T14:47:20.773Z,63.12
2018-12-14T14:49:50.038Z,62.83
2018-12-14T14:52:19.287Z,63.13
2018-12-14T14:54:48.561Z,63.36
2018-12-14T14:57:17.821Z,63.58
2018-12-14T14:59:47.078Z,63.94
2018-12-14T15:02:16.334Z,64.14
2018-12-14T15:04:45.633Z,64.26
2018-12-14T15:07:14.892Z,64.43
2018-12-14T15:09:44.164Z,64.69
2018-12-14T15:12:13.576Z,64.94
2018-12-14T15:14:42.860Z,65.04
2018-12-14T15:17:12.180Z,65.07
2018-12-14T15:19:41.457Z,65.06
2018-12-14T15:22:10.725Z,65.22
2018-12-14T15:24:39.985Z,65.20
2018-12-14T15:27:09.233Z,65.07
2018-12-14T15:29:38.561Z,65.09
2018-12-14T15:32:07.280Z,65.05
2018-12-14T15:34:36.553Z,65.05
2018-12-14T15:37:05.814Z,65.26
2018-12-14T15:39:35.105Z,65.27
2018-12-14T15:42:04.356Z,65.20
2018-12-14T15:44:33.624Z,65.10
2018-12-14T15:47:02.907Z,65.27
2018-12-14T15:49:32.158Z,65.22
2018-12-14T15:52:01.423Z,65.42
2018-12-14T15:54:30.684Z,65.45
2018-12-14T15:56:59.945Z,65.54
2018-12-14T15:59:29.195Z,65.61
2018-12-14T16:01:58.456Z,65.87
2018-12-14T16:04:27.713Z,65.97
2018-12-14T16:06:56.985Z,65.96
2018-12-14T16:09:26.237Z,66.04
2018-12-14T16:11:55.498Z,66.19
2018-12-14T16:14:24.771Z,66.19
2018-12-14T16:16:54.031Z,66.38
2018-12-14T16:19:23.285Z,66.62
2018-12-14T16:21:52.549Z,66.67
2018-12-14T16:24:21.804Z,67.00
2018-12-14T16:26:51.097Z,66.89
2018-12-14T16:29:20.338Z,66.88
2018-12-14T16:31:49.605Z,66.92
2018-12-14T16:34:18.855Z,66.87
2018-12-14T16:36:48.117Z,66.84
2018-12-14T16:39:17.375Z,66.92
2018-12-14T16:41:46.639Z,66.99
2018-12-14T16:44:15.897Z,67.10
2018-12-14T16:46:45.172Z,67.13
2018-12-14T16:49:14.448Z,67.14
2018-12-14T16:51:43.729Z,67.13
2018-12-14T16:54:12.989Z,66.97
2018-12-14T16:56:42.245Z,67.13
2018-12-14T16:59:11.518Z,67.25
2018-12-14T17:01:40.791Z,67.41
2018-12-14T17:04:10.052Z,67.57
2018-12-14T17:06:39.364Z,67.42
2018-12-14T17:09:08.655Z,67.49
2018-12-14T17:11:37.929Z,67.47
2018-12-14T17:14:07.195Z,67.60
2018-12-14T17:16:36.466Z,67.71
2018-12-14T17:19:05.752Z,67.58
2018-12-14T17:21:35.031Z,67.77
2018-12-14T17:24:04.309Z,67.82
2018-12-14T17:26:33.566Z,67.62
2018-12-14T17:29:02.822Z,67.66
2018-12-14T17:31:32.135Z,67.73
2018-12-14T17:34:01.386Z,67.89
2018-12-14T17:36:30.644Z,67.92
2018-12-14T17:38:59.915Z,67.93
2018-12-14T17:41:29.174Z,68.03
2018-12-14T17:43:58.449Z,67.99
2018-12-14T17:46:27.707Z,68.02
2018-12-14T17:49:16.028Z,68.06
2018-12-14T17:51:45.301Z,68.12
2018-12-14T17:54:14.576Z,68.26
2018-12-14T17:56:43.869Z,68.21
2018-12-14T17:59:13.458Z,68.42
2018-12-14T18:01:42.793Z,68.46
2018-12-14T18:04:12.071Z,68.46
2018-12-14T18:06:41.323Z,68.52
2018-12-14T18:09:10.582Z,68.59
2018-12-14T18:11:39.837Z,68.69
2018-12-14T18:14:09.098Z,68.74
2018-12-14T18:19:27.619Z,69.10
2018-12-14T18:21:56.877Z,69.13
2018-12-14T18:24:26.138Z,69.27
2018-12-14T18:26:55.393Z,69.33
2018-12-14T18:29:24.668Z,69.29
2018-12-14T18:31:53.920Z,69.44
2018-12-14T18:34:23.198Z,69.50
2018-12-14T18:36:52.459Z,69.49
2018-12-14T18:39:21.732Z,69.50
2018-12-14T18:41:50.989Z,69.57
2018-12-14T18:44:20.266Z,69.53
2018-12-14T18:46:49.531Z,69.38
2018-12-14T18:49:18.802Z,69.52
2018-12-14T18:51:48.072Z,69.55
2018-12-14T18:54:17.693Z,71.33
2018-12-14T18:56:46.960Z,70.21
2018-12-14T19:01:51.680Z,72.29
2018-12-14T19:04:20.968Z,70.22
2018-12-14T19:06:50.216Z,69.82
2018-12-14T19:11:54.155Z,71.92
2018-12-14T19:14:23.399Z,74.00
2018-12-14T19:16:52.685Z,73.65
2018-12-14T19:19:21.938Z,73.01
2018-12-14T19:21:51.211Z,73.68
2018-12-14T19:24:20.478Z,75.51
2018-12-14T19:29:24.402Z,75.31
2018-12-14T19:42:13.588Z,70.26
2018-12-14T19:44:43.191Z,70.36
2018-12-14T19:49:48.139Z,69.56
2018-12-14T19:52:17.429Z,69.54
2018-12-14T19:57:35.185Z,69.89
2018-12-14T20:00:04.746Z,78.23
2018-12-14T20:02:34.011Z,72.80
2018-12-14T20:05:03.285Z,70.32
2018-12-14T20:07:32.553Z,70.12
2018-12-14T20:10:01.816Z,70.07
2018-12-14T20:12:31.080Z,70.15
2018-12-14T20:15:00.332Z,69.54
2018-12-14T20:17:29.608Z,69.82
2018-12-14T20:19:58.855Z,69.65
2018-12-14T20:22:28.126Z,69.76
2018-12-14T20:24:57.388Z,69.59
2018-12-14T20:27:26.657Z,69.72
2018-12-14T20:29:55.918Z,69.82
2018-12-14T20:32:25.187Z,69.80
2018-12-14T20:40:20.169Z,70.07
2018-12-14T20:45:24.730Z,69.91
2018-12-14T20:47:53.996Z,69.83
2018-12-14T20:50:23.252Z,69.55
2018-12-14T20:52:52.524Z,69.50
2018-12-14T20:55:21.796Z,69.51
2018-12-14T20:57:51.068Z,69.46
2018-12-14T21:00:21.555Z,69.63
2018-12-14T21:02:50.530Z,69.67
2018-12-14T21:05:19.810Z,69.48
2018-12-14T21:07:49.073Z,69.68
2018-12-14T21:10:18.341Z,69.62
2018-12-14T21:12:47.682Z,69.39
2018-12-14T21:15:16.901Z,68.97
2018-12-14T21:18:06.053Z,69.16
2018-12-14T21:20:35.310Z,68.99
2018-12-14T21:23:04.579Z,69.01
2018-12-14T21:25:33.837Z,68.76
2018-12-14T21:28:03.103Z,68.65
2018-12-14T21:30:32.360Z,68.79
2018-12-14T21:33:01.682Z,68.81
2018-12-14T21:35:30.939Z,68.71
2018-12-14T21:38:00.201Z,68.32
2018-12-14T21:40:29.475Z,68.27
2018-12-14T21:42:58.732Z,68.50
2018-12-14T21:45:27.996Z,68.63
2018-12-14T21:47:57.262Z,68.63
2018-12-14T21:50:26.534Z,68.65
2018-12-14T21:52:55.794Z,68.70
2018-12-14T21:55:25.065Z,68.74
2018-12-14T21:57:54.336Z,68.55
2018-12-14T22:00:23.606Z,68.19
2018-12-14T22:02:52.863Z,67.54
2018-12-14T22:05:22.128Z,67.80
2018-12-14T22:07:51.389Z,67.89
2018-12-14T22:10:20.655Z,67.71
2018-12-14T22:12:49.919Z,67.78
2018-12-14T22:15:19.202Z,67.78
2018-12-14T22:17:48.455Z,67.58
2018-12-14T22:20:17.718Z,67.78
2018-12-14T22:22:46.977Z,67.85
2018-12-14T22:25:16.313Z,67.40
2018-12-14T22:27:45.540Z,67.61
2018-12-14T22:30:14.804Z,67.68
2018-12-14T22:32:44.056Z,67.74
2018-12-14T22:35:32.927Z,67.82
2018-12-14T22:38:02.203Z,67.61
2018-12-14T22:40:31.481Z,67.54
2018-12-14T22:43:00.736Z,67.44
2018-12-14T22:45:49.069Z,67.28
2018-12-14T22:48:18.330Z,67.36
2018-12-14T22:50:47.602Z,67.42
2018-12-14T22:53:16.858Z,67.40
2018-12-14T22:55:46.140Z,67.48
2018-12-14T22:58:15.390Z,67.21
2018-12-14T23:01:03.385Z,67.20
2018-12-14T23:03:32.643Z,67.39
2018-12-14T23:06:01.908Z,67.30
2018-12-14T23:11:19.542Z,67.62
2018-12-14T23:13:48.793Z,67.46
2018-12-14T23:16:18.054Z,67.36
2018-12-14T23:18:47.312Z,67.35
2018-12-14T23:21:16.580Z,67.40
2018-12-14T23:23:45.830Z,67.24
2018-12-14T23:26:15.103Z,67.12
2018-12-14T23:28:44.352Z,67.28
2018-12-14T23:31:13.617Z,67.41
2018-12-14T23:33:42.870Z,67.61
2018-12-14T23:36:12.134Z,67.72
2018-12-14T23:38:41.390Z,67.66
2018-12-14T23:41:10.651Z,67.50
2018-12-14T23:43:39.908Z,67.56
2018-12-14T23:46:09.178Z,67.47
2018-12-14T23:48:38.436Z,67.34
2018-12-14T23:51:07.695Z,67.47
2018-12-14T23:53:36.950Z,67.34
2018-12-14T23:56:06.223Z,67.05
2018-12-14T23:58:35.477Z,66.98
